Relevés horaires Antwerpen / Deurne (Belgique)


Relevés horaires à Antwerpen / Deurne - Mercredi 31 Mai 2017
Heure UTC1 Température [°C] Vent [km/h] Hum. [%] Pres.4 [hPa] Visi. [Km] Nébu. [octa] Préc.5 [mm] Cond.
2m. Res. Ros. Dir.2 Vit. Moy. Raf.3
23:00 15.1 15.1 9.0 N 1.9 3.7 5.6 67 1023.3(0.5/3h) 45 0/8 -- --
22:00 16.0 16.0 9.8 NNO 1.9 3.7 5.6 67 1023.3(0.8/3h) 45 0/8 -- --
21:00 16.4 16.4 9.9 N 3.7 11.1 13.0 65 1023.2(0.9/3h) 50 1/8 -- --
20:00 17.7 17.7 10.7 N 7.4 9.3 13.0 64 1022.8(0.8/3h) 50 3/8 -- --
19:00 19.3 19.3 11.2 N 7.4 11.1 13.0 59 1022.5(0.5/3h) 45 1/8 -- --
18:00 20.9 20.9 12.1 NNO 9.3 13.0 16.7 57 1022.2(0.4/3h) 45 1/8 12/12h
--
17:00 21.4 21.4 12.6 NNO 11.1 13.0 16.7 57 1021.9(-0.2/3h) 20 1/8 -- --
16:00 22.2 22.2 12.1 NO 9.3 11.1 14.8 53 1022(-0.4/3h) 20 2/8 -- --
15:00 23.1 23.1 12.7 NO 7.4 9.3 14.8 52 1021.8(-1.0/3h) 20 3/8 -- --
14:00 21.9 21.9 12.6 ONO 9.3 9.3 13.0 56 1022.2(-0.9/3h) 20 3/8 -- --
13:00 21.9 21.9 12.0 NO 3.7 7.4 11.1 53 1022.4(-0.6/3h) 20 4/8 -- --
12:00 21.4 21.4 11.6 O 7.4 9.3 13.0 54 1022.8(0.1/3h) 20 4/8 12/6h
--
11:00 21.6 21.6 10.7 O 5.6 7.4 13.0 50 1023(0.2/3h) 20 4/8 -- --
10:00 21.5 21.5 11.9 O 3.7 5.6 9.3 54 1023(0.6/3h) 20 4/8 -- --
09:00 19.6 19.6 11.8 NNO 3.7 5.6 9.3 61 1022.9(0.9/3h) 20 2/8 -- --
08:00 18.3 18.3 12.9 ONO 3.7 5.6 7.4 71 1022.8(1.3/3h) 20 2/8 -- --
07:00 16.5 16.5 12.5 O 5.6 5.6 7.4 77 1022.4(1.2/3h) 20 1/8 -- --
06:00 14.6 14.6 11.5 O 3.7 9.3 13.0 82 1022.1(1.2/3h) 20 1/8 0/12h
--
05:00 13.0 13.0 10.6 SO 3.7 3.7 5.6 85 1021.6(0.9/3h) 20 1/8 -- --
04:00 12.7 12.7 10.6 OSO 3.7 5.6 9.3 87 1021.2(0.7/3h) 16 0/8 -- --
03:00 13.2 13.2 10.6 SO 3.7 9.3 13.0 84 1020.9(0.5/3h) 25 0/8 -- --
02:00 13.5 13.5 10.3 O 5.6 7.4 11.1 81 1020.7(0.5/3h) 35 0/8 -- --
01:00 14.2 14 10.1 O 7.4 9.3 13.0 76 1020.5(0.7/3h) 45 0/8 -- --
00:00 14.8 14.5 10.1 O 9.3 13.0 18.5 73 1020.4(0.9/3h) 50 0/8 0/6h
0/24h
--

1 Coordinated Universal Time. Actuellement il est 03:00 locale et 02:00 UTC.

2 Le vent souffle depuis la direction indiquée vers la direction oposée.

3 Les rafales max. sont disponible 40 min après l'heure du relevé.

4 Pour les stations d'altitude (plus de 600m) le géopotentiel du niveau le plus proche de la pression obligatoire est indiqué.

5 Les stations disposant d'un diffuseur peuvent indiquer "trace". Cela signifie que des précipitations ont touchés le sol mais que la quantité est inférieure à 0.1 mm.

Récapitulatif de la journée
Température [°C] Vent [km/h] Ensoleillement4 [h] Precipitations totale5 [mm] Pression [Hpa]
Min1 Max.2 Moy.3 Max. Min Max.
12.7 23.8 8.3 18.5 0 h 0 min 12.3 1020.4 1023.3

1 Température minimale relevée entre 18:00 UTC la veille et 18:00 UTC le jour donné.

2 Température maximale relevée entre 06:00 UTC le jour donné et 06:00 UTC le lendemain.

3 Vent moyen de la journée basé sur les relevés horaires.

4 Ensoleillement en heures relevé entre 06:00 UTC la veille et 06:00 UTC le jour donné.

5 Précipitations totales tombées entre 06:00 UTC la jour donné et 06:00 UTC le lendemain.

Graphiques horaires